Terminal Aerodrome Forecast
Issued by NWS Twin Cities, MN

Home | Current Version | Previous Version | Text Only | Print | Product List | Glossary Off
Versions: 1 2 3 4 5 6 7 8 9 10 11 12 13 14 15 16 17 18 19 20 21 22 23 24 25

000
FTUS43 KMPX 241722
TAFMSP
TAF
KMSP 241722Z 2418/2524 04007KT P6SM SCT030 BKN045
     FM250200 07005KT P6SM SCT050
     FM251100 12006KT 6SM BR FEW009 SCT020 BKN050
     FM251400 14010G16KT P6SM SCT025 BKN050=

USA.gov is the U.S. government's official web portal to all federal, state and local government web resources and services.